Time;durP1;ratioP1;P1;durP2;ratioP2;P2;SDS_P1;SDS_P2;PMS_P1;PMS_P2;Temp;Humidity;BMP_temperature;BMP_pressure;BME280_temperature;BME280_humidity;BME280_pressure;Samples;Min_cycle;Max_cycle;Signal;HPM_P1;HPM_P2
2021/08/13 00:00:34;;;;;;;15.35;8.20;;;;;;;18.15;92.49;98972.47;5046709;28;20217;-66
2021/08/13 00:03:00;;;;;;;13.73;7.43;;;;;;;18.25;92.43;98972.91;5046734;28;20085;-66
2021/08/13 00:05:25;;;;;;;14.13;8.70;;;;;;;18.22;92.50;98973.09;5046731;28;20079;-66
2021/08/13 00:07:50;;;;;;;13.30;7.68;;;;;;;18.28;92.27;98970.13;5046683;28;20024;-66
2021/08/13 00:10:16;;;;;;;16.67;8.13;;;;;;;18.33;92.48;98978.78;5046603;28;20017;-66
2021/08/13 00:12:41;;;;;;;18.08;7.82;;;;;;;18.42;92.27;98981.06;5046497;28;20044;-66
2021/08/13 00:15:08;;;;;;;13.82;7.97;;;;;;;18.42;92.14;98975.75;5046552;28;20074;-66
2021/08/13 00:17:34;;;;;;;14.40;9.30;;;;;;;18.24;92.49;98965.88;5046471;28;20017;-66
2021/08/13 00:19:59;;;;;;;16.58;9.13;;;;;;;18.21;92.51;98960.69;5046431;28;20339;-66
2021/08/13 00:22:24;;;;;;;14.35;8.40;;;;;;;18.19;92.81;98957.25;5046403;28;20013;-66
2021/08/13 00:24:51;;;;;;;18.17;9.38;;;;;;;18.35;92.53;98958.28;5052237;28;20048;-66
2021/08/13 00:27:17;;;;;;;15.63;8.57;;;;;;;18.39;91.96;98959.91;5065127;28;20120;-66
2021/08/13 00:29:42;;;;;;;15.63;8.63;;;;;;;18.45;91.94;98954.28;5065091;28;20021;-66
2021/08/13 00:32:08;;;;;;;14.98;8.82;;;;;;;18.42;92.14;98965.09;5066110;28;20059;-66
2021/08/13 00:34:33;;;;;;;17.05;9.07;;;;;;;18.46;92.08;98959.56;5066027;28;20067;-66
2021/08/13 00:36:58;;;;;;;18.75;9.23;;;;;;;18.58;91.92;98958.13;5066096;28;20220;-66
2021/08/13 00:39:24;;;;;;;16.33;9.05;;;;;;;18.54;91.93;98953.88;5066038;28;20320;-67
2021/08/13 00:41:50;;;;;;;15.55;8.60;;;;;;;18.58;92.46;98976.78;5066003;28;20040;-67
2021/08/13 00:44:15;;;;;;;15.80;9.00;;;;;;;18.63;91.78;99001.41;5065963;28;20366;-67
2021/08/13 00:46:41;;;;;;;15.25;9.18;;;;;;;18.64;91.63;98979.16;5065632;28;20027;-67
2021/08/13 00:49:06;;;;;;;17.15;10.30;;;;;;;18.50;91.76;98989.56;5065883;28;20017;-67
2021/08/13 00:51:32;;;;;;;14.80;9.07;;;;;;;18.55;92.19;99014.25;5064595;28;20025;-67
2021/08/13 00:53:57;;;;;;;23.30;8.93;;;;;;;18.47;92.30;98995.03;5065639;28;20131;-67
2021/08/13 00:56:24;;;;;;;18.67;9.20;;;;;;;18.39;92.29;98994.53;5065727;28;20020;-67
2021/08/13 00:58:50;;;;;;;16.35;7.82;;;;;;;18.41;92.15;98990.88;5065689;28;20021;-67
2021/08/13 01:01:15;;;;;;;14.98;8.88;;;;;;;18.35;92.53;98982.25;5065465;28;20083;-67
2021/08/13 01:03:41;;;;;;;15.68;8.57;;;;;;;18.37;92.68;98983.06;5065710;28;20025;-67
2021/08/13 01:06:11;;;;;;;15.18;9.77;;;;;;;18.33;92.49;98985.00;5062639;28;20087;-67
2021/08/13 01:08:37;;;;;;;16.33;8.70;;;;;;;18.36;92.58;98991.97;5045562;28;20344;-67
2021/08/13 01:11:08;;;;;;;19.10;9.35;;;;;;;18.35;92.85;98982.25;5045458;28;20025;-67
2021/08/13 01:13:58;;;;;;;13.48;8.20;;;;;;;18.40;93.12;99001.59;5045495;28;20220;-67
2021/08/13 01:16:27;;;;;;;15.35;8.63;;;;;;;18.49;92.93;98982.53;5046643;28;20053;-67
2021/08/13 01:19:00;;;;;;;12.07;8.63;;;;;;;18.54;92.72;98985.84;5065310;28;20312;-67
2021/08/13 01:21:38;;;;;;;14.95;9.07;;;;;;;18.57;92.59;98977.72;5065313;28;20312;-67
2021/08/13 01:24:15;;;;;;;16.30;8.85;;;;;;;18.62;92.24;98973.91;5065238;28;20024;-67
2021/08/13 01:27:04;;;;;;;14.38;8.25;;;;;;;18.51;92.62;98964.69;5065201;28;20075;-67
2021/08/13 01:29:49;;;;;;;19.40;8.68;;;;;;;18.45;92.44;98954.28;5063564;28;20033;-68
2021/08/13 01:32:17;;;;;;;15.13;8.73;;;;;;;18.45;92.76;98962.28;5064994;28;20031;-67
2021/08/13 01:34:47;;;;;;;13.57;8.75;;;;;;;18.53;92.55;98950.31;5045377;28;20376;-67
2021/08/13 01:37:14;;;;;;;11.52;8.13;;;;;;;18.43;92.90;98945.47;5045045;28;20021;-67
2021/08/13 01:39:41;;;;;;;15.25;8.10;;;;;;;18.47;93.44;98952.41;5044929;28;20049;-67
2021/08/13 01:42:08;;;;;;;19.10;9.27;;;;;;;18.53;92.57;98962.78;5043758;28;20368;-67
2021/08/13 01:44:36;;;;;;;16.67;9.48;;;;;;;18.60;91.89;98977.56;5044851;28;20335;-67
2021/08/13 01:47:02;;;;;;;14.07;8.88;;;;;;;18.60;92.65;98980.22;5043153;28;20023;-67
2021/08/13 01:49:30;;;;;;;13.52;9.18;;;;;;;18.69;94.10;99011.81;5044747;28;20028;-67
2021/08/13 01:51:57;;;;;;;19.15;10.57;;;;;;;18.73;93.98;99037.41;5060242;28;20336;-67
2021/08/13 01:54:24;;;;;;;26.02;11.77;;;;;;;18.93;93.76;99058.69;5064641;28;20020;-67
2021/08/13 01:56:51;;;;;;;21.98;11.95;;;;;;;18.99;93.80;99055.75;5064579;28;20021;-67
2021/08/13 01:59:17;;;;;;;27.50;12.30;;;;;;;19.06;93.81;99067.88;5064535;28;20032;-67
2021/08/13 02:01:44;;;;;;;39.58;13.68;;;;;;;19.06;94.41;99059.84;5064297;28;20031;-67
2021/08/13 02:04:10;;;;;;;28.08;11.88;;;;;;;18.86;94.87;99078.59;5062999;28;20021;-67
2021/08/13 02:06:36;;;;;;;37.80;15.38;;;;;;;18.87;95.80;99104.31;5059061;28;20062;-67
2021/08/13 02:09:03;;;;;;;21.20;12.70;;;;;;;18.88;95.45;99117.59;5047175;28;20048;-67
2021/08/13 02:11:30;;;;;;;25.05;13.80;;;;;;;18.86;94.89;99089.25;5044389;28;20021;-67
2021/08/13 02:13:56;;;;;;;21.45;13.35;;;;;;;18.83;94.96;99078.72;5044316;28;20018;-67
2021/08/13 02:16:26;;;;;;;24.80;13.82;;;;;;;18.83;95.16;99084.91;5044324;28;20029;-67
2021/08/13 02:19:06;;;;;;;24.27;13.13;;;;;;;18.91;94.98;99121.91;5044465;28;20032;-67
2021/08/13 02:21:36;;;;;;;20.85;12.85;;;;;;;18.89;95.47;99150.47;5043097;28;20319;-67
2021/08/13 02:24:01;;;;;;;24.50;13.43;;;;;;;18.88;95.75;99140.72;5044196;28;20025;-67
2021/08/13 02:26:27;;;;;;;23.85;12.77;;;;;;;18.87;95.38;99158.56;5045236;28;20021;-67
2021/08/13 02:28:53;;;;;;;27.20;12.57;;;;;;;18.83;95.33;99153.41;5044180;28;20026;-67
2021/08/13 02:31:19;;;;;;;18.88;11.00;;;;;;;19.01;93.59;99163.25;5044030;28;20032;-67
2021/08/13 02:33:44;;;;;;;27.98;11.57;;;;;;;18.98;93.11;99174.06;5042933;28;20021;-67
2021/08/13 02:36:15;;;;;;;20.23;11.30;;;;;;;18.98;93.86;99158.03;5044215;28;20088;-67
2021/08/13 02:38:47;;;;;;;25.55;12.98;;;;;;;18.92;94.78;99153.00;5044034;28;20021;-67
2021/08/13 02:41:14;;;;;;;17.92;10.98;;;;;;;18.92;95.33;99131.66;5042859;28;20017;-67
2021/08/13 02:43:47;;;;;;;24.63;13.27;;;;;;;18.87;95.25;99104.31;5043963;28;20036;-67
2021/08/13 02:46:15;;;;;;;29.02;13.60;;;;;;;18.79;95.62;99111.78;5045205;28;20020;-67
2021/08/13 02:48:41;;;;;;;21.05;11.55;;;;;;;18.78;95.98;99105.59;5043881;28;20021;-67
2021/08/13 02:51:10;;;;;;;22.48;12.25;;;;;;;18.80;95.95;99095.72;5043839;28;20048;-67
2021/08/13 02:53:39;;;;;;;22.83;12.63;;;;;;;18.73;96.40;99099.59;5043822;28;20022;-67
2021/08/13 02:56:07;;;;;;;21.20;12.98;;;;;;;18.69;96.71;99098.00;5048637;28;20055;-67
2021/08/13 02:58:42;;;;;;;25.35;12.40;;;;;;;18.71;96.83;99089.94;5064431;28;20021;-67
2021/08/13 03:01:11;;;;;;;18.20;12.27;;;;;;;18.69;95.95;99087.34;5067835;28;20044;-67
2021/08/13 03:03:37;;;;;;;20.83;12.00;;;;;;;18.61;95.74;99077.97;5067904;28;20025;-67
2021/08/13 03:06:04;;;;;;;22.70;12.52;;;;;;;18.54;95.89;99087.16;5060151;28;20032;-67
2021/08/13 03:08:30;;;;;;;24.38;12.20;;;;;;;18.56;96.50;99095.94;5067497;28;20079;-67
2021/08/13 03:10:57;;;;;;;21.02;12.02;;;;;;;18.47;96.33;99085.69;5067656;28;20025;-67
2021/08/13 03:13:25;;;;;;;17.58;11.20;;;;;;;18.39;96.12;99098.50;5067758;28;20043;-67
2021/08/13 03:15:52;;;;;;;21.25;12.02;;;;;;;18.39;96.33;99093.16;5067552;28;20335;-67
2021/08/13 03:18:18;;;;;;;19.92;12.00;;;;;;;18.28;96.09;99090.03;5066458;28;20021;-67
2021/08/13 03:20:43;;;;;;;22.42;12.25;;;;;;;18.24;96.04;99094.66;5067575;28;20032;-67
2021/08/13 03:23:09;;;;;;;20.50;12.18;;;;;;;18.20;95.92;99092.19;5067525;28;20414;-67
2021/08/13 03:25:36;;;;;;;23.75;12.23;;;;;;;18.19;96.00;99096.63;5067435;28;20035;-67
2021/08/13 03:28:05;;;;;;;25.33;12.65;;;;;;;18.15;96.22;99115.47;5049434;28;20021;-67
2021/08/13 03:30:37;;;;;;;20.63;12.48;;;;;;;18.11;96.51;99112.09;5047419;28;20229;-67
2021/08/13 03:33:03;;;;;;;24.38;12.35;;;;;;;18.09;96.53;99099.75;5047348;28;20088;-67
2021/08/13 03:35:28;;;;;;;21.13;13.43;;;;;;;18.08;96.62;99092.69;5047306;28;20025;-67
2021/08/13 03:37:53;;;;;;;21.48;12.85;;;;;;;18.11;96.65;99095.22;5062506;28;20027;-67
2021/08/13 03:40:19;;;;;;;23.27;12.85;;;;;;;18.06;96.49;99086.56;5066062;28;20044;-67
2021/08/13 03:42:44;;;;;;;24.30;12.52;;;;;;;17.99;96.32;99087.75;5067455;28;20369;-67
2021/08/13 03:45:10;;;;;;;20.77;12.27;;;;;;;18.01;96.45;99083.22;5067120;28;20021;-67
2021/08/13 03:47:35;;;;;;;21.88;12.45;;;;;;;17.97;96.78;99089.63;5057751;28;20022;-67
2021/08/13 03:50:01;;;;;;;19.60;12.02;;;;;;;17.92;96.74;99212.34;5047092;28;20025;-67
2021/08/13 03:52:26;;;;;;;19.90;11.27;;;;;;;17.86;96.63;99175.28;5046981;28;20041;-67
2021/08/13 03:54:51;;;;;;;23.17;11.15;;;;;;;17.86;96.23;99172.63;5047476;28;20100;-67
2021/08/13 03:57:17;;;;;;;22.95;12.60;;;;;;;17.79;96.49;99162.28;5061240;28;20088;-67
2021/08/13 03:59:42;;;;;;;20.70;12.68;;;;;;;17.77;96.79;99164.13;5046788;28;20021;-67
2021/08/13 04:02:08;;;;;;;19.55;11.32;;;;;;;17.75;96.51;99158.00;5061748;28;20041;-67
2021/08/13 04:04:33;;;;;;;19.25;11.73;;;;;;;17.65;96.36;99156.63;5066724;28;20096;-67
2021/08/13 04:06:59;;;;;;;24.42;12.05;;;;;;;17.61;96.55;99149.69;5064751;28;20151;-67
2021/08/13 04:09:24;;;;;;;19.98;11.98;;;;;;;17.54;96.45;99132.22;5064543;28;20023;-67
2021/08/13 04:11:49;;;;;;;23.48;11.68;;;;;;;17.44;96.35;99179.63;5065611;28;20031;-67
2021/08/13 04:14:15;;;;;;;20.45;12.27;;;;;;;17.42;96.59;99153.94;5065645;28;20316;-67
2021/08/13 04:16:40;;;;;;;21.27;13.30;;;;;;;17.43;96.81;99150.41;5057083;28;20017;-67
2021/08/13 04:19:05;;;;;;;21.00;11.70;;;;;;;17.38;96.75;99152.34;5056852;28;20041;-67
2021/08/13 04:21:31;;;;;;;25.73;13.00;;;;;;;17.34;97.11;99145.41;5045167;28;20024;-67
2021/08/13 04:23:56;;;;;;;23.50;12.38;;;;;;;17.37;97.22;99134.66;5057082;28;20052;-67
2021/08/13 04:26:22;;;;;;;19.38;12.80;;;;;;;17.33;97.28;99127.72;5064286;28;20211;-67
2021/08/13 04:28:47;;;;;;;22.30;11.30;;;;;;;17.33;97.15;99144.53;5064646;28;20016;-67
2021/08/13 04:31:12;;;;;;;21.33;12.32;;;;;;;17.37;97.13;99155.94;5064974;28;20021;-67
2021/08/13 04:33:38;;;;;;;21.67;12.43;;;;;;;17.35;96.97;99168.41;5064471;28;20391;-67
2021/08/13 04:36:04;;;;;;;29.95;12.23;;;;;;;17.27;96.79;99175.84;5062120;28;20035;-67
2021/08/13 04:38:29;;;;;;;26.55;11.55;;;;;;;17.30;96.95;99170.41;5050633;28;20020;-67
2021/08/13 04:40:54;;;;;;;28.95;11.88;;;;;;;17.27;96.62;99185.53;5044848;28;20032;-67
2021/08/13 04:43:20;;;;;;;23.25;12.98;;;;;;;17.23;96.62;99191.91;5051366;28;20023;-67
2021/08/13 04:45:45;;;;;;;16.77;11.68;;;;;;;17.21;96.89;99199.06;5064810;28;20040;-67
2021/08/13 04:48:11;;;;;;;22.17;11.98;;;;;;;17.22;96.71;99215.91;5065920;28;20320;-67
2021/08/13 04:50:37;;;;;;;21.77;11.98;;;;;;;17.32;96.84;99221.75;5065895;28;20060;-67
2021/08/13 04:53:03;;;;;;;23.33;12.45;;;;;;;17.37;96.70;99225.13;5065790;28;20029;-67
2021/08/13 04:55:28;;;;;;;22.73;12.88;;;;;;;17.36;96.91;99247.31;5065819;28;20080;-67
2021/08/13 04:57:54;;;;;;;18.80;11.32;;;;;;;17.45;96.91;99249.66;5065830;28;20031;-67
2021/08/13 05:00:20;;;;;;;19.23;10.80;;;;;;;17.54;96.37;99255.53;5065695;28;20025;-67
2021/08/13 05:02:46;;;;;;;17.75;10.07;;;;;;;17.62;96.15;99268.56;5065474;28;20332;-67
2021/08/13 05:05:12;;;;;;;17.55;10.70;;;;;;;17.68;96.10;99279.00;5065639;28;20059;-67
2021/08/13 05:07:39;;;;;;;14.63;9.07;;;;;;;17.78;95.70;99283.03;5065573;28;20251;-67
2021/08/13 05:10:23;;;;;;;17.50;10.57;;;;;;;17.72;94.94;99296.59;5065526;28;20036;-67
2021/08/13 05:12:50;;;;;;;18.77;10.02;;;;;;;17.86;94.83;99305.78;5065446;28;20025;-67
2021/08/13 05:15:16;;;;;;;16.20;11.10;;;;;;;17.82;94.97;99314.81;5065443;28;20116;-67
2021/08/13 05:17:41;;;;;;;16.55;10.13;;;;;;;17.96;95.27;99316.94;5065391;28;20324;-67
2021/08/13 05:20:08;;;;;;;15.20;9.38;;;;;;;18.19;94.73;99330.28;5065348;28;20041;-67
2021/08/13 05:22:35;;;;;;;14.07;9.43;;;;;;;18.28;93.95;99335.22;5064367;28;20086;-66
2021/08/13 05:25:02;;;;;;;19.65;9.82;;;;;;;18.22;93.67;99367.47;5065243;28;20020;-66
2021/08/13 05:27:28;;;;;;;19.42;10.40;;;;;;;18.09;94.30;99350.19;5065156;28;20032;-66
2021/08/13 05:29:53;;;;;;;14.35;8.85;;;;;;;18.09;94.71;99360.84;5065119;28;20021;-66
2021/08/13 05:32:19;;;;;;;15.43;9.07;;;;;;;18.10;94.73;99368.78;5065036;28;20021;-66
2021/08/13 05:34:44;;;;;;;14.73;10.27;;;;;;;18.12;94.44;99376.72;5065075;28;20040;-66
2021/08/13 05:37:09;;;;;;;17.77;10.52;;;;;;;18.35;94.55;99387.38;5065001;28;20092;-66
2021/08/13 05:39:35;;;;;;;14.95;9.45;;;;;;;19.19;92.99;99418.66;5063791;28;20021;-66
2021/08/13 05:42:00;;;;;;;13.00;8.65;;;;;;;19.86;90.20;99374.78;5064900;28;20092;-66
2021/08/13 05:44:26;;;;;;;12.30;8.77;;;;;;;20.40;86.99;99388.31;5064854;28;20092;-66
2021/08/13 05:46:51;;;;;;;15.15;8.60;;;;;;;20.77;84.59;99358.88;5064818;28;20036;-66
2021/08/13 05:49:16;;;;;;;14.35;7.90;;;;;;;21.25;83.06;99359.13;5064777;28;20044;-66
2021/08/13 05:51:42;;;;;;;15.10;8.57;;;;;;;21.46;82.17;99356.28;5064607;28;20028;-66
2021/08/13 05:54:07;;;;;;;11.07;8.00;;;;;;;21.92;80.84;99358.34;5064709;28;20021;-66
2021/08/13 05:56:32;;;;;;;13.13;8.32;;;;;;;22.20;78.44;99351.38;5064635;28;20024;-66
2021/08/13 05:59:00;;;;;;;11.10;8.25;;;;;;;22.53;77.58;99352.22;5063404;28;20017;-66
2021/08/13 06:01:26;;;;;;;16.45;8.07;;;;;;;22.85;77.24;99350.41;5064396;28;20036;-67
2021/08/13 06:03:52;;;;;;;12.43;8.30;;;;;;;22.87;78.31;99361.91;5064431;28;20024;-67
2021/08/13 06:06:17;;;;;;;14.82;8.13;;;;;;;23.29;75.84;99356.78;5064408;28;20023;-67
2021/08/13 06:08:43;;;;;;;12.35;7.28;;;;;;;23.54;74.59;99351.63;5063243;28;20025;-67
2021/08/13 06:11:08;;;;;;;11.43;6.78;;;;;;;23.63;75.04;99350.22;5063125;28;20213;-67
2021/08/13 06:13:33;;;;;;;10.30;7.18;;;;;;;23.87;74.79;99348.72;5064351;28;20216;-67
2021/08/13 06:15:59;;;;;;;16.88;8.73;;;;;;;24.10;71.65;99340.97;5064311;28;20265;-67
2021/08/13 06:18:24;;;;;;;13.93;7.95;;;;;;;23.75;74.57;99325.25;5064276;28;20031;-67
2021/08/13 06:20:50;;;;;;;11.52;8.27;;;;;;;23.53;75.71;99317.66;5064211;28;20324;-67
2021/08/13 06:23:15;;;;;;;13.48;8.02;;;;;;;24.52;72.37;99338.25;5064186;28;20047;-67
2021/08/13 06:25:41;;;;;;;13.10;8.25;;;;;;;24.29;73.39;99325.41;5064196;28;20193;-67
2021/08/13 06:28:06;;;;;;;11.75;7.97;;;;;;;24.46;73.26;99333.25;5064175;28;20028;-67
2021/08/13 06:30:31;;;;;;;11.57;7.75;;;;;;;24.68;71.39;99317.47;5064066;28;20028;-67
2021/08/13 06:32:59;;;;;;;11.77;8.00;;;;;;;25.71;70.09;99342.78;5063853;28;20332;-67
2021/08/13 06:35:25;;;;;;;13.35;7.68;;;;;;;26.12;69.50;99354.28;5064036;28;20016;-67
2021/08/13 06:37:54;;;;;;;17.65;8.35;;;;;;;26.43;67.21;99345.72;5063977;28;20043;-67
2021/08/13 06:40:20;;;;;;;14.85;8.13;;;;;;;26.89;66.06;99347.66;5063931;28;20024;-67
2021/08/13 06:42:46;;;;;;;10.88;7.97;;;;;;;27.11;66.85;99341.50;5063909;28;20017;-67
2021/08/13 06:45:14;;;;;;;16.40;8.88;;;;;;;26.71;67.17;99331.97;5063886;28;20063;-67
2021/08/13 06:47:40;;;;;;;12.82;7.95;;;;;;;26.72;67.34;99334.56;5063771;28;20031;-67
2021/08/13 06:50:06;;;;;;;14.30;7.78;;;;;;;26.80;68.42;99325.88;5063848;28;20212;-67
2021/08/13 06:52:32;;;;;;;14.52;7.00;;;;;;;26.97;67.98;99328.19;5063746;28;20052;-67
2021/08/13 06:54:58;;;;;;;12.32;6.88;;;;;;;27.40;68.04;99329.41;5063812;28;20091;-67
2021/08/13 06:57:23;;;;;;;11.48;6.07;;;;;;;26.99;67.13;99323.53;5063847;28;20032;-67
2021/08/13 06:59:49;;;;;;;13.57;5.75;;;;;;;27.38;65.38;99325.06;5063757;28;20017;-67
2021/08/13 07:02:15;;;;;;;17.67;5.85;;;;;;;27.38;66.16;99323.25;5063520;28;20044;-67
2021/08/13 07:04:40;;;;;;;17.13;5.97;;;;;;;27.28;67.01;99316.81;5063733;28;20031;-67
2021/08/13 07:07:06;;;;;;;10.38;5.28;;;;;;;27.13;65.00;99313.41;5063745;28;20084;-67
2021/08/13 07:09:31;;;;;;;18.00;6.20;;;;;;;26.86;65.95;99309.22;5063671;28;20047;-67
2021/08/13 07:11:57;;;;;;;17.95;6.18;;;;;;;26.80;67.41;99305.13;5063600;28;20082;-67
2021/08/13 07:14:22;;;;;;;12.63;5.88;;;;;;;26.71;66.22;99299.56;5062480;28;20027;-67
2021/08/13 07:16:47;;;;;;;11.35;5.57;;;;;;;27.50;64.60;99306.09;5063609;28;20024;-67
2021/08/13 07:19:13;;;;;;;11.20;4.95;;;;;;;27.84;62.90;99310.56;5063610;28;20251;-67
2021/08/13 07:21:39;;;;;;;20.90;5.57;;;;;;;28.72;61.84;99348.53;5063651;28;20028;-67
2021/08/13 07:24:04;;;;;;;18.85;5.38;;;;;;;29.13;61.69;99353.28;5063537;28;20048;-67
2021/08/13 07:26:30;;;;;;;14.75;5.85;;;;;;;29.03;60.17;99334.22;5063458;28;20035;-67
2021/08/13 07:28:55;;;;;;;13.05;5.30;;;;;;;28.56;61.99;99323.69;5063540;28;20202;-67
2021/08/13 07:31:21;;;;;;;10.10;5.40;;;;;;;28.53;62.15;99340.19;5063396;28;20147;-67
2021/08/13 07:33:46;;;;;;;11.43;5.75;;;;;;;29.16;61.38;99343.03;5063447;28;20087;-67
2021/08/13 07:36:12;;;;;;;17.98;6.30;;;;;;;29.56;58.24;99355.94;5063427;28;20027;-67
2021/08/13 07:38:40;;;;;;;10.68;5.20;;;;;;;29.04;60.23;99341.34;5063399;28;20021;-67
2021/08/13 07:41:10;;;;;;;11.52;5.25;;;;;;;29.81;57.72;99355.59;5063423;28;20021;-67
2021/08/13 07:43:37;;;;;;;14.32;5.80;;;;;;;30.29;57.17;99363.06;5062588;28;20029;-67
2021/08/13 07:46:03;;;;;;;15.48;5.57;;;;;;;30.23;57.79;99354.59;5066222;28;20017;-67
2021/08/13 07:48:29;;;;;;;15.80;5.97;;;;;;;29.99;58.88;99348.59;5067097;28;20025;-67
2021/08/13 07:50:55;;;;;;;13.05;5.68;;;;;;;29.92;58.33;99339.22;5067085;28;20024;-67
2021/08/13 07:53:21;;;;;;;12.65;5.00;;;;;;;29.89;57.77;99337.66;5065737;28;20025;-67
2021/08/13 07:55:46;;;;;;;17.67;6.03;;;;;;;29.23;59.92;99325.25;5066922;28;20089;-67
2021/08/13 07:58:12;;;;;;;13.60;5.38;;;;;;;28.35;63.61;99317.25;5066909;28;20028;-67
2021/08/13 08:00:37;;;;;;;16.83;6.00;;;;;;;28.50;64.17;99317.91;5066749;28;20221;-67
2021/08/13 08:03:03;;;;;;;16.80;6.88;;;;;;;28.47;64.39;99327.13;5066718;28;20021;-67
2021/08/13 08:05:28;;;;;;;15.60;6.15;;;;;;;28.48;65.01;99322.59;5066799;28;20029;-67
2021/08/13 08:07:54;;;;;;;12.25;5.97;;;;;;;29.20;62.58;99338.25;5066725;28;20027;-67
2021/08/13 08:10:20;;;;;;;11.73;5.60;;;;;;;29.74;60.02;99336.25;5066710;28;20041;-67
2021/08/13 08:12:45;;;;;;;13.35;6.07;;;;;;;29.93;59.55;99338.25;5066568;28;20084;-67
2021/08/13 08:15:11;;;;;;;12.07;6.18;;;;;;;30.30;59.89;99347.63;5066586;28;20268;-67
2021/08/13 08:17:36;;;;;;;14.32;5.47;;;;;;;30.68;57.81;99355.94;5066581;28;20025;-67
2021/08/13 08:20:03;;;;;;;15.77;6.38;;;;;;;30.85;58.46;99349.88;5066494;28;20319;-67
2021/08/13 08:22:28;;;;;;;11.32;5.90;;;;;;;30.04;59.01;99330.00;5066391;28;20347;-67
2021/08/13 08:24:55;;;;;;;14.10;6.13;;;;;;;29.68;60.66;99317.81;5066455;28;20021;-67
2021/08/13 08:27:21;;;;;;;13.18;6.55;;;;;;;29.96;60.62;99329.84;5066386;28;20371;-67
2021/08/13 08:29:46;;;;;;;11.45;5.95;;;;;;;30.33;58.66;99333.75;5066320;28;20070;-67
2021/08/13 08:32:11;;;;;;;16.38;6.78;;;;;;;31.03;59.25;99338.16;5066188;28;20388;-67
2021/08/13 08:34:37;;;;;;;14.57;6.30;;;;;;;31.11;57.02;99345.63;5066233;28;20021;-67
2021/08/13 08:37:03;;;;;;;11.07;6.03;;;;;;;31.55;57.35;99345.13;5066157;28;20024;-67
2021/08/13 08:39:29;;;;;;;11.88;6.47;;;;;;;31.71;55.40;99334.50;5066095;28;20362;-67
2021/08/13 08:41:54;;;;;;;11.70;6.45;;;;;;;32.10;54.44;99346.19;5066171;28;20016;-67
2021/08/13 08:44:20;;;;;;;15.27;5.95;;;;;;;32.00;54.83;99340.78;5066045;28;20032;-67
2021/08/13 08:46:46;;;;;;;14.70;6.45;;;;;;;32.09;54.57;99344.50;5066023;28;20067;-67
2021/08/13 08:49:13;;;;;;;13.85;6.07;;;;;;;32.11;53.54;99346.06;5065952;28;20054;-67
2021/08/13 08:51:40;;;;;;;12.82;6.78;;;;;;;32.24;53.86;99343.84;5064804;28;20096;-68
2021/08/13 08:54:05;;;;;;;13.07;6.80;;;;;;;32.53;53.48;99355.56;5065854;28;20216;-67
2021/08/13 08:56:32;;;;;;;15.65;6.50;;;;;;;32.44;53.67;99340.09;5065817;28;20020;-68
2021/08/13 08:58:57;;;;;;;14.13;7.13;;;;;;;32.84;52.69;99342.50;5065784;28;20095;-68
2021/08/13 09:01:25;;;;;;;13.00;7.47;;;;;;;33.34;50.88;99357.38;5065534;28;20029;-68
2021/08/13 09:03:50;;;;;;;11.43;6.57;;;;;;;32.85;53.46;99339.66;5065581;28;20051;-68
2021/08/13 09:06:16;;;;;;;15.10;6.90;;;;;;;32.98;52.26;99340.13;5065619;28;20312;-68
2021/08/13 09:08:42;;;;;;;15.00;6.78;;;;;;;32.71;52.42;99340.09;5065579;28;20045;-68
2021/08/13 09:11:08;;;;;;;17.25;6.95;;;;;;;32.94;51.81;99338.72;5065471;28;20029;-68
2021/08/13 09:13:35;;;;;;;12.18;6.82;;;;;;;32.96;52.15;99325.78;5065486;28;20025;-68
2021/08/13 09:16:12;;;;;;;15.80;7.00;;;;;;;32.80;52.91;99320.09;5065456;28;20020;-68
2021/08/13 09:18:37;;;;;;;18.02;6.78;;;;;;;33.13;52.43;99344.03;5065358;28;20132;-68
2021/08/13 09:21:03;;;;;;;14.20;7.47;;;;;;;33.13;53.15;99330.41;5065335;28;20021;-68
2021/08/13 09:23:34;;;;;;;15.43;6.93;;;;;;;33.44;50.69;99335.53;5065318;28;20324;-68
2021/08/13 09:26:08;;;;;;;12.88;6.50;;;;;;;33.72;47.75;99346.19;5065570;28;20096;-68
2021/08/13 09:28:53;;;;;;;10.90;6.82;;;;;;;33.92;48.96;99335.97;5065254;28;20239;-68
2021/08/13 09:31:28;;;;;;;13.50;7.80;;;;;;;33.19;50.35;99319.88;5065068;28;20071;-68
2021/08/13 09:34:16;;;;;;;13.73;7.30;;;;;;;33.13;51.91;99311.28;5065395;28;20084;-68
2021/08/13 09:36:53;;;;;;;16.33;8.02;;;;;;;33.18;52.60;99315.44;5063902;28;20025;-68
2021/08/13 09:39:31;;;;;;;14.23;7.90;;;;;;;32.32;54.18;99297.66;5065063;28;20025;-68
2021/08/13 09:42:06;;;;;;;13.82;7.65;;;;;;;31.99;55.13;99289.19;5064975;28;20244;-68
2021/08/13 09:44:43;;;;;;;11.82;7.82;;;;;;;32.24;53.72;99300.25;5065001;28;20020;-68
2021/08/13 09:47:13;;;;;;;15.98;8.23;;;;;;;31.63;55.25;99282.63;5064904;28;20035;-68
2021/08/13 09:49:41;;;;;;;10.33;7.80;;;;;;;31.57;56.01;99294.09;5064868;28;20394;-68
2021/08/13 09:52:14;;;;;;;23.08;8.20;;;;;;;31.60;54.94;99295.69;5064699;28;20032;-68
2021/08/13 09:54:40;;;;;;;13.57;8.15;;;;;;;31.76;52.43;99294.06;5064658;28;20039;-68
2021/08/13 09:57:11;;;;;;;23.42;7.82;;;;;;;31.63;56.18;99292.69;5064680;28;20017;-68
2021/08/13 09:59:38;;;;;;;19.00;8.23;;;;;;;32.80;50.58;99308.34;5064652;28;20025;-68
2021/08/13 10:02:14;;;;;;;14.30;7.63;;;;;;;33.26;49.28;99310.94;5064385;28;20056;-68
2021/08/13 10:04:40;;;;;;;13.38;7.85;;;;;;;33.48;51.32;99317.81;5064554;28;20053;-68
2021/08/13 10:07:06;;;;;;;11.02;7.82;;;;;;;33.70;51.09;99309.13;5064141;28;20271;-68
2021/08/13 10:09:31;;;;;;;15.68;8.23;;;;;;;33.58;48.01;99302.19;5064414;28;20025;-68
2021/08/13 10:12:07;;;;;;;14.77;7.65;;;;;;;33.54;49.71;99303.53;5064353;28;20017;-68
2021/08/13 10:14:38;;;;;;;14.68;7.25;;;;;;;33.39;49.14;99310.56;5064449;28;20028;-68
2021/08/13 10:17:18;;;;;;;14.50;7.53;;;;;;;33.86;50.39;99320.19;5064348;28;20198;-68
2021/08/13 10:19:46;;;;;;;13.55;7.55;;;;;;;33.51;51.17;99303.84;5064299;28;20059;-68
2021/08/13 10:22:12;;;;;;;14.60;7.63;;;;;;;33.80;50.36;99305.28;5059245;28;20032;-68
2021/08/13 10:24:39;;;;;;;14.05;7.75;;;;;;;33.86;49.37;99295.59;5061790;28;20055;-68
2021/08/13 10:27:06;;;;;;;16.83;8.18;;;;;;;33.93;49.96;99291.22;5062681;28;20104;-68
2021/08/13 10:29:32;;;;;;;16.25;7.88;;;;;;;34.01;50.06;99291.28;5062956;28;20016;-68
2021/08/13 10:31:58;;;;;;;13.23;7.35;;;;;;;34.06;48.75;99283.44;5055546;28;20320;-68
2021/08/13 10:34:24;;;;;;;14.70;8.13;;;;;;;33.69;50.21;99274.66;5056520;28;20389;-68
2021/08/13 10:36:50;;;;;;;15.50;7.90;;;;;;;33.88;48.39;99264.38;5045929;28;20090;-68
2021/08/13 10:39:20;;;;;;;14.68;7.30;;;;;;;33.98;50.55;99269.75;5042717;28;20017;-68
2021/08/13 10:41:59;;;;;;;15.50;8.63;;;;;;;33.29;50.49;99244.25;5048779;28;20025;-68
2021/08/13 10:44:29;;;;;;;14.82;7.75;;;;;;;33.49;53.10;99256.72;5063008;28;20250;-68
2021/08/13 10:47:00;;;;;;;15.05;8.23;;;;;;;33.69;49.56;99258.25;5061832;28;20029;-68
2021/08/13 10:49:26;;;;;;;13.98;8.27;;;;;;;33.48;51.01;99255.03;5062994;28;20043;-68
2021/08/13 10:52:03;;;;;;;16.10;8.65;;;;;;;33.61;50.89;99261.78;5056031;28;20351;-68
2021/08/13 10:54:42;;;;;;;12.45;7.72;;;;;;;33.76;50.00;99265.66;5042977;28;20372;-68
2021/08/13 10:57:09;;;;;;;12.98;7.93;;;;;;;33.68;51.01;99256.53;5042950;28;20025;-68
2021/08/13 10:59:41;;;;;;;13.60;7.90;;;;;;;32.90;49.97;99239.09;5042944;28;20017;-68
2021/08/13 11:02:15;;;;;;;18.10;7.82;;;;;;;32.21;52.52;99224.28;5041491;28;20037;-68
2021/08/13 11:04:48;;;;;;;15.10;7.80;;;;;;;32.86;51.92;99251.34;5042431;28;20216;-68
2021/08/13 11:07:14;;;;;;;10.57;7.50;;;;;;;32.60;51.74;99249.47;5053108;28;20351;-68
2021/08/13 11:09:41;;;;;;;14.43;8.27;;;;;;;32.01;52.28;99233.53;5062753;28;20052;-68
2021/08/13 11:12:15;;;;;;;12.88;7.40;;;;;;;32.14;55.06;99244.13;5062682;28;20025;-68
2021/08/13 11:14:53;;;;;;;15.40;8.23;;;;;;;31.80;53.41;99235.63;5062738;28;20251;-68
2021/08/13 11:17:42;;;;;;;12.50;7.47;;;;;;;31.84;52.59;99247.94;5062256;28;20025;-68
2021/08/13 11:20:10;;;;;;;11.85;7.60;;;;;;;32.00;53.54;99242.72;5064210;28;20023;-68
2021/08/13 11:22:37;;;;;;;13.02;7.40;;;;;;;31.95;53.86;99239.59;5066661;28;20027;-68